Time;durP1;ratioP1;P1;durP2;ratioP2;P2;SDS_P1;SDS_P2;PMS_P1;PMS_P2;Temp;Humidity;BMP_temperature;BMP_pressure;BME280_temperature;BME280_humidity;BME280_pressure;Samples;Min_cycle;Max_cycle;Signal;HPM_P1;HPM_P2
2023/10/29 00:00:16;;;;;;;1.02;0.80;;;13.40;99.90;;;;;;5041768;28;20909;-45
2023/10/29 00:02:42;;;;;;;0.65;0.65;;;13.40;99.90;;;;;;5041330;28;20032;-44
2023/10/29 00:05:10;;;;;;;1.45;0.80;;;13.40;99.90;;;;;;5042497;28;20051;-45
2023/10/29 00:07:36;;;;;;;0.70;0.70;;;13.40;99.90;;;;;;5041642;28;20025;-43
2023/10/29 00:10:02;;;;;;;1.40;0.75;;;13.40;99.90;;;;;;5041925;28;20984;-45
2023/10/29 00:12:28;;;;;;;2.17;0.80;;;13.50;99.90;;;;;;5041821;28;20047;-45
2023/10/29 00:14:53;;;;;;;1.83;0.70;;;13.50;99.90;;;;;;5042147;28;20049;-46
2023/10/29 00:17:19;;;;;;;1.52;0.90;;;13.50;99.90;;;;;;5041938;28;20020;-43
2023/10/29 00:19:44;;;;;;;0.70;0.70;;;13.60;99.90;;;;;;5041381;28;20056;-46
2023/10/29 00:22:11;;;;;;;0.63;0.60;;;13.60;99.90;;;;;;5041073;28;21413;-44
2023/10/29 00:24:39;;;;;;;0.80;0.60;;;13.60;99.90;;;;;;5042267;28;20064;-44
2023/10/29 00:27:05;;;;;;;1.00;0.50;;;13.60;99.90;;;;;;5041419;28;20020;-44
2023/10/29 00:29:31;;;;;;;1.00;0.57;;;13.60;99.90;;;;;;5041291;28;20802;-45
2023/10/29 00:31:57;;;;;;;0.85;0.70;;;13.70;99.90;;;;;;5042157;28;20071;-45
2023/10/29 00:34:22;;;;;;;0.82;0.50;;;13.70;99.90;;;;;;5041770;28;20567;-44
2023/10/29 00:36:48;;;;;;;0.60;0.60;;;13.70;99.90;;;;;;5041354;28;20029;-45
2023/10/29 00:39:17;;;;;;;1.05;0.90;;;13.70;99.90;;;;;;5041019;28;20167;-44
2023/10/29 00:41:43;;;;;;;1.35;0.90;;;13.70;99.90;;;;;;5041568;28;20029;-44
2023/10/29 00:44:08;;;;;;;1.33;0.80;;;13.70;99.90;;;;;;5040306;28;20043;-45
2023/10/29 00:46:34;;;;;;;1.08;0.50;;;13.80;99.90;;;;;;5041302;28;20151;-45
2023/10/29 00:49:00;;;;;;;1.40;0.70;;;13.80;99.90;;;;;;5041458;28;20131;-44
2023/10/29 00:51:26;;;;;;;0.63;0.63;;;13.80;99.90;;;;;;5041023;28;20121;-45
2023/10/29 00:53:52;;;;;;;0.98;0.80;;;13.70;99.90;;;;;;5041415;28;20036;-44
2023/10/29 00:56:21;;;;;;;1.35;0.80;;;13.70;99.90;;;;;;5041188;28;20737;-44
2023/10/29 00:58:47;;;;;;;0.95;0.70;;;13.80;99.90;;;;;;5039255;28;20082;-44
2023/10/29 01:01:13;;;;;;;0.95;0.80;;;13.80;99.90;;;;;;5040200;28;20053;-44
2023/10/29 01:03:41;;;;;;;1.33;0.70;;;13.80;99.90;;;;;;5040770;28;20795;-44
2023/10/29 01:06:08;;;;;;;1.42;0.73;;;13.80;99.90;;;;;;5040643;28;20069;-44
2023/10/29 01:08:34;;;;;;;1.38;0.75;;;13.80;99.90;;;;;;5040736;28;20453;-44
2023/10/29 01:10:59;;;;;;;2.15;0.73;;;13.80;99.90;;;;;;5040530;28;20704;-45
2023/10/29 01:13:25;;;;;;;1.25;0.82;;;13.80;99.90;;;;;;5040824;28;20021;-44
2023/10/29 01:15:50;;;;;;;0.75;0.57;;;13.80;99.90;;;;;;5041376;28;20642;-44
2023/10/29 01:18:16;;;;;;;1.45;0.80;;;13.80;99.90;;;;;;5039456;28;20093;-45
2023/10/29 01:20:43;;;;;;;1.45;0.70;;;13.90;99.90;;;;;;5041298;28;20017;-44
2023/10/29 01:23:09;;;;;;;0.75;0.60;;;13.90;99.90;;;;;;5040453;28;20025;-43
2023/10/29 01:25:34;;;;;;;1.45;0.50;;;13.90;99.90;;;;;;5039312;28;20056;-43
2023/10/29 01:28:00;;;;;;;0.38;0.38;;;13.90;99.90;;;;;;5041013;28;20668;-44
2023/10/29 01:30:26;;;;;;;2.10;0.60;;;13.90;99.90;;;;;;5039870;28;20025;-45
2023/10/29 01:32:51;;;;;;;1.00;0.60;;;14.00;99.90;;;;;;5020143;28;20033;-45
2023/10/29 01:35:17;;;;;;;0.93;0.60;;;14.00;99.90;;;;;;5033507;28;20072;-44
2023/10/29 01:37:42;;;;;;;0.80;0.60;;;14.00;99.90;;;;;;5041142;28;20445;-45
2023/10/29 01:40:09;;;;;;;0.68;0.60;;;14.00;99.90;;;;;;5039908;28;20032;-44
2023/10/29 01:42:35;;;;;;;1.55;0.85;;;14.00;99.90;;;;;;5039854;28;20025;-44
2023/10/29 01:45:00;;;;;;;1.50;0.70;;;14.00;99.90;;;;;;5040125;28;20029;-45
2023/10/29 01:47:26;;;;;;;0.65;0.47;;;14.00;99.90;;;;;;5039917;28;20021;-45
2023/10/29 01:49:51;;;;;;;1.02;0.60;;;14.00;99.90;;;;;;5041453;28;20167;-45
2023/10/29 01:52:20;;;;;;;2.05;0.70;;;14.10;99.90;;;;;;5040376;28;20017;-44
2023/10/29 01:54:48;;;;;;;1.20;0.70;;;14.10;99.90;;;;;;5039787;28;20029;-44
2023/10/29 01:57:14;;;;;;;1.85;0.70;;;14.10;99.90;;;;;;5039919;28;20025;-44
2023/10/29 01:59:39;;;;;;;0.88;0.73;;;14.10;99.90;;;;;;5039911;28;20028;-44
2023/10/29 02:02:05;;;;;;;0.80;0.80;;;14.10;99.90;;;;;;5036836;28;20036;-44
2023/10/29 02:04:32;;;;;;;0.98;0.70;;;14.10;99.90;;;;;;5040584;28;20041;-44
2023/10/29 02:07:00;;;;;;;0.85;0.70;;;14.10;99.90;;;;;;5040343;28;20037;-44
2023/10/29 02:09:26;;;;;;;0.80;0.70;;;14.10;99.90;;;;;;5040351;28;20037;-44
2023/10/29 02:11:51;;;;;;;1.33;0.60;;;14.10;99.90;;;;;;5040348;28;20028;-44
2023/10/29 02:14:17;;;;;;;1.30;0.80;;;14.10;99.90;;;;;;5039706;28;20112;-44
2023/10/29 02:16:46;;;;;;;1.75;0.70;;;14.10;99.90;;;;;;5040773;28;20040;-44
2023/10/29 02:19:12;;;;;;;0.90;0.80;;;14.10;99.90;;;;;;5040181;28;20056;-44
2023/10/29 02:21:37;;;;;;;0.98;0.80;;;14.10;99.90;;;;;;5039758;28;20448;-44
2023/10/29 02:24:03;;;;;;;1.30;0.70;;;14.20;99.90;;;;;;5040157;28;20538;-44
2023/10/29 02:26:29;;;;;;;0.88;0.60;;;14.20;99.90;;;;;;5040013;28;20055;-44
2023/10/29 02:28:54;;;;;;;0.93;0.63;;;14.20;99.90;;;;;;5040112;28;20036;-44
2023/10/29 02:31:20;;;;;;;0.93;0.77;;;14.30;99.90;;;;;;5039439;28;20484;-44
2023/10/29 02:33:46;;;;;;;1.23;0.68;;;14.30;99.90;;;;;;5039769;28;20044;-44
2023/10/29 02:36:14;;;;;;;1.15;0.77;;;14.30;99.90;;;;;;5039091;28;20028;-44
2023/10/29 02:38:40;;;;;;;0.63;0.63;;;14.40;99.90;;;;;;5040115;28;20156;-44
2023/10/29 02:41:09;;;;;;;1.85;0.70;;;14.40;99.90;;;;;;5039485;28;20025;-45
2023/10/29 02:43:38;;;;;;;1.38;0.73;;;14.40;99.90;;;;;;5040033;28;20642;-44
2023/10/29 02:46:04;;;;;;;0.60;0.60;;;14.50;99.90;;;;;;5043593;28;20094;-45
2023/10/29 02:48:29;;;;;;;0.95;0.65;;;14.50;99.90;;;;;;5043301;28;20068;-44
2023/10/29 02:50:55;;;;;;;1.35;0.80;;;14.50;99.90;;;;;;5042950;28;20452;-44
2023/10/29 02:53:21;;;;;;;0.50;0.50;;;14.50;99.90;;;;;;5043530;28;20397;-44
2023/10/29 02:55:46;;;;;;;2.50;0.90;;;14.50;99.90;;;;;;5044082;28;20112;-44
2023/10/29 02:58:12;;;;;;;0.70;0.70;;;14.50;99.90;;;;;;5042573;28;20025;-45
2023/10/29 03:00:38;;;;;;;0.98;0.80;;;14.50;99.90;;;;;;5044149;28;20039;-44
2023/10/29 03:03:04;;;;;;;1.45;0.82;;;14.50;99.90;;;;;;5043433;28;20400;-44
2023/10/29 03:05:29;;;;;;;1.30;0.88;;;14.50;99.90;;;;;;5042759;28;20045;-44
2023/10/29 03:07:55;;;;;;;1.88;0.82;;;14.50;99.90;;;;;;5043531;28;20369;-44
2023/10/29 03:10:20;;;;;;;1.30;1.20;;;14.50;99.90;;;;;;5042992;28;20831;-44
2023/10/29 03:12:46;;;;;;;1.52;0.90;;;14.50;99.90;;;;;;5042612;28;20009;-44
2023/10/29 03:15:14;;;;;;;1.38;0.68;;;14.40;99.90;;;;;;5043573;28;20033;-44
2023/10/29 03:17:40;;;;;;;1.17;0.65;;;14.40;99.90;;;;;;5043078;28;20104;-44
2023/10/29 03:20:06;;;;;;;1.85;0.70;;;14.40;99.90;;;;;;5043197;28;20037;-46
2023/10/29 03:22:34;;;;;;;1.17;0.90;;;14.40;99.90;;;;;;5043181;28;20025;-45
2023/10/29 03:25:00;;;;;;;2.47;0.82;;;14.40;99.90;;;;;;5042972;28;20029;-45
2023/10/29 03:27:25;;;;;;;0.98;0.70;;;14.40;99.90;;;;;;5043376;28;20029;-44
2023/10/29 03:29:51;;;;;;;0.65;0.57;;;14.40;99.90;;;;;;5043692;28;20029;-44
2023/10/29 03:32:20;;;;;;;1.40;0.85;;;14.50;99.90;;;;;;5042133;28;20063;-44
2023/10/29 03:34:45;;;;;;;0.85;0.55;;;14.50;99.90;;;;;;5042555;28;20110;-45
2023/10/29 03:37:12;;;;;;;1.67;0.80;;;14.50;99.90;;;;;;5042627;28;20048;-45
2023/10/29 03:39:37;;;;;;;0.50;0.50;;;14.50;99.90;;;;;;5042141;28;20286;-45
2023/10/29 03:42:03;;;;;;;1.50;0.70;;;14.40;99.90;;;;;;5042896;28;20530;-45
2023/10/29 03:44:29;;;;;;;1.45;0.70;;;14.40;99.90;;;;;;5042550;28;20039;-45
2023/10/29 03:46:55;;;;;;;1.55;0.88;;;14.40;99.90;;;;;;5041691;28;20052;-45
2023/10/29 03:49:20;;;;;;;1.48;0.73;;;14.50;99.90;;;;;;5042333;28;20021;-46
2023/10/29 03:51:47;;;;;;;1.00;0.70;;;14.50;99.90;;;;;;5042939;28;20114;-45
2023/10/29 03:54:13;;;;;;;1.20;0.60;;;14.50;99.90;;;;;;5040673;28;20415;-43
2023/10/29 03:56:38;;;;;;;1.10;0.80;;;14.50;99.90;;;;;;5042535;28;20037;-44
2023/10/29 03:59:04;;;;;;;1.73;0.80;;;14.60;99.90;;;;;;5042684;28;20981;-44
2023/10/29 04:01:29;;;;;;;1.38;0.65;;;14.60;99.90;;;;;;5041882;28;20025;-44
2023/10/29 04:03:55;;;;;;;1.55;0.70;;;14.60;99.90;;;;;;5041977;28;20025;-44
2023/10/29 04:06:20;;;;;;;1.02;0.80;;;14.60;99.90;;;;;;5041518;28;20041;-44
2023/10/29 04:08:47;;;;;;;2.42;0.60;;;14.50;99.90;;;;;;5041629;28;20108;-44
2023/10/29 04:11:12;;;;;;;1.20;0.88;;;14.50;99.90;;;;;;5041183;28;20091;-44
2023/10/29 04:13:38;;;;;;;1.85;0.70;;;14.50;99.90;;;;;;5041990;28;20790;-44
2023/10/29 04:16:03;;;;;;;1.35;0.70;;;14.40;99.90;;;;;;5040725;28;20053;-44
2023/10/29 04:18:31;;;;;;;0.55;0.50;;;14.50;99.90;;;;;;5042061;28;20460;-45
2023/10/29 04:20:58;;;;;;;1.10;0.60;;;14.40;99.90;;;;;;5040796;28;20056;-45
2023/10/29 04:23:23;;;;;;;1.63;0.60;;;14.40;99.90;;;;;;5041798;28;20043;-45
2023/10/29 04:25:52;;;;;;;3.53;0.65;;;14.40;99.90;;;;;;5041861;28;20045;-45
2023/10/29 04:28:17;;;;;;;0.80;0.60;;;14.30;99.90;;;;;;5040789;28;20036;-44
2023/10/29 04:30:46;;;;;;;2.22;0.80;;;14.30;99.90;;;;;;5041552;28;20025;-44
2023/10/29 04:33:12;;;;;;;0.70;0.60;;;14.30;99.90;;;;;;5040865;28;20033;-45
2023/10/29 04:35:37;;;;;;;1.60;0.60;;;14.30;99.90;;;;;;5040532;28;20047;-45
2023/10/29 04:38:03;;;;;;;0.90;0.47;;;14.30;99.90;;;;;;5041501;28;20488;-45
2023/10/29 04:40:28;;;;;;;0.52;0.52;;;14.30;99.90;;;;;;5041142;28;20021;-45
2023/10/29 04:42:57;;;;;;;1.00;0.47;;;14.30;99.90;;;;;;5040658;28;20025;-44
2023/10/29 04:45:23;;;;;;;1.48;0.60;;;14.30;99.90;;;;;;5041220;28;20037;-44
2023/10/29 04:47:48;;;;;;;0.70;0.57;;;14.30;99.90;;;;;;5041042;28;20027;-44
2023/10/29 04:50:14;;;;;;;1.00;0.60;;;14.30;99.90;;;;;;5040415;28;20059;-44
2023/10/29 04:52:40;;;;;;;1.05;0.50;;;14.40;99.90;;;;;;5041692;28;20511;-45
2023/10/29 04:55:05;;;;;;;0.70;0.57;;;14.40;99.90;;;;;;5041819;28;20313;-44
2023/10/29 04:57:31;;;;;;;1.02;0.43;;;14.40;99.90;;;;;;5040974;28;20080;-44
2023/10/29 05:00:00;;;;;;;0.80;0.60;;;14.50;99.90;;;;;;5041369;28;20146;-44
2023/10/29 05:02:26;;;;;;;0.70;0.52;;;14.50;99.90;;;;;;5041211;28;20040;-45
2023/10/29 05:04:51;;;;;;;3.78;0.90;;;14.50;99.90;;;;;;5040757;28;20106;-43
2023/10/29 05:07:17;;;;;;;2.97;0.70;;;14.40;99.90;;;;;;5040407;28;20426;-45
2023/10/29 05:09:43;;;;;;;2.05;0.73;;;14.40;99.90;;;;;;5041319;28;20029;-44
2023/10/29 05:12:15;;;;;;;2.38;0.60;;;14.40;99.90;;;;;;5040442;28;20131;-45
2023/10/29 05:14:40;;;;;;;2.05;0.60;;;14.40;99.90;;;;;;5040797;28;20021;-45
2023/10/29 05:17:06;;;;;;;1.88;0.70;;;14.30;99.90;;;;;;5039626;28;20028;-45
2023/10/29 05:19:39;;;;;;;1.85;0.70;;;14.30;99.90;;;;;;5040798;28;20468;-45
2023/10/29 05:22:04;;;;;;;1.85;0.57;;;14.30;99.90;;;;;;5040369;28;20539;-44
2023/10/29 05:24:30;;;;;;;0.73;0.40;;;14.30;99.90;;;;;;5039309;28;20032;-45
2023/10/29 05:26:55;;;;;;;1.20;0.40;;;14.30;99.90;;;;;;5040580;28;20040;-45
2023/10/29 05:29:21;;;;;;;1.65;0.60;;;14.20;99.90;;;;;;5040358;28;20029;-45
2023/10/29 05:31:47;;;;;;;0.88;0.60;;;14.20;99.90;;;;;;5040161;28;20575;-45
2023/10/29 05:34:14;;;;;;;2.60;0.70;;;14.20;99.90;;;;;;5040445;28;20084;-46
2023/10/29 05:36:40;;;;;;;0.85;0.50;;;14.10;99.90;;;;;;5040677;28;20865;-45
2023/10/29 05:39:07;;;;;;;1.02;0.52;;;14.00;99.90;;;;;;5039582;28;20405;-44
2023/10/29 05:41:32;;;;;;;0.60;0.50;;;14.00;99.90;;;;;;5040880;28;20176;-45
2023/10/29 05:43:58;;;;;;;1.02;0.65;;;13.90;99.90;;;;;;5040046;28;20119;-45
2023/10/29 05:46:23;;;;;;;2.10;0.73;;;13.90;99.90;;;;;;5040074;28;20381;-44
2023/10/29 05:48:50;;;;;;;0.70;0.50;;;14.00;99.90;;;;;;5040693;28;20033;-45
2023/10/29 05:51:19;;;;;;;1.30;0.52;;;14.00;99.90;;;;;;5040069;28;20131;-45
2023/10/29 05:53:47;;;;;;;1.58;0.60;;;14.00;99.90;;;;;;5040260;28;20048;-44
2023/10/29 05:56:12;;;;;;;1.80;0.70;;;14.00;99.90;;;;;;5040116;28;20593;-46
2023/10/29 05:58:38;;;;;;;0.82;0.60;;;14.00;99.90;;;;;;5040565;28;20021;-45
2023/10/29 06:01:04;;;;;;;1.60;0.57;;;14.00;99.90;;;;;;5039905;28;20094;-45
2023/10/29 06:03:30;;;;;;;0.47;0.47;;;14.00;99.90;;;;;;5040746;28;20017;-45
2023/10/29 06:05:59;;;;;;;2.70;0.70;;;14.00;99.90;;;;;;5040917;28;20041;-45
2023/10/29 06:08:24;;;;;;;1.88;0.60;;;13.90;99.90;;;;;;5039741;28;20025;-45
2023/10/29 06:10:53;;;;;;;1.42;0.40;;;14.00;99.90;;;;;;5040493;28;20059;-43
2023/10/29 06:13:18;;;;;;;1.30;0.40;;;13.90;99.90;;;;;;5038986;28;20017;-44
2023/10/29 06:15:44;;;;;;;1.10;0.65;;;13.90;99.90;;;;;;5040640;28;20017;-46
2023/10/29 06:18:10;;;;;;;1.50;0.50;;;13.90;99.90;;;;;;5041382;28;20039;-45
2023/10/29 06:20:40;;;;;;;2.03;0.50;;;13.90;99.90;;;;;;5044051;28;20780;-45
2023/10/29 06:23:05;;;;;;;1.67;0.47;;;13.90;99.90;;;;;;5044696;28;20108;-46
2023/10/29 06:25:31;;;;;;;0.73;0.40;;;13.90;99.90;;;;;;5043570;28;20037;-46
2023/10/29 06:27:57;;;;;;;2.00;0.40;;;13.90;99.90;;;;;;5044048;28;20100;-44
2023/10/29 06:30:22;;;;;;;2.15;0.77;;;13.90;99.90;;;;;;5043385;28;20807;-44
2023/10/29 06:32:48;;;;;;;2.60;0.55;;;13.90;99.90;;;;;;5044253;28;20028;-44
2023/10/29 06:35:13;;;;;;;1.48;0.43;;;13.90;99.90;;;;;;5042621;28;20053;-44
2023/10/29 06:37:39;;;;;;;1.35;0.40;;;13.80;99.90;;;;;;5043828;28;20116;-44
2023/10/29 06:40:06;;;;;;;1.15;0.50;;;13.80;99.90;;;;;;5043533;28;20468;-44
2023/10/29 06:42:32;;;;;;;1.40;0.47;;;13.80;99.90;;;;;;5043364;28;20021;-44
2023/10/29 06:44:57;;;;;;;1.23;0.60;;;13.80;99.90;;;;;;5043144;28;20021;-45
2023/10/29 06:47:23;;;;;;;3.40;0.50;;;13.80;99.90;;;;;;5043503;28;20103;-45
2023/10/29 06:49:50;;;;;;;1.77;0.40;;;13.80;99.90;;;;;;5043302;28;20029;-44
2023/10/29 06:52:16;;;;;;;1.35;0.50;;;13.80;99.90;;;;;;5043517;28;20029;-46
2023/10/29 06:54:42;;;;;;;2.22;0.50;;;13.80;99.90;;;;;;5043798;28;20042;-43
2023/10/29 06:57:08;;;;;;;2.55;0.60;;;13.80;99.90;;;;;;5043030;28;20044;-43
2023/10/29 06:59:33;;;;;;;2.42;0.77;;;13.80;99.90;;;;;;5043545;28;20144;-46
2023/10/29 07:01:59;;;;;;;1.98;0.50;;;13.80;99.90;;;;;;5043425;28;20028;-45
2023/10/29 07:04:25;;;;;;;1.95;0.65;;;13.80;99.90;;;;;;5043084;28;20032;-45
2023/10/29 07:06:51;;;;;;;2.00;1.27;;;13.80;99.90;;;;;;5043305;28;20163;-45
2023/10/29 07:09:16;;;;;;;3.65;0.93;;;13.70;99.90;;;;;;5043594;28;20028;-45
2023/10/29 07:11:45;;;;;;;2.00;0.50;;;13.70;99.90;;;;;;5042692;28;20025;-45
2023/10/29 07:14:12;;;;;;;0.75;0.43;;;13.70;99.90;;;;;;5042870;28;20118;-45
2023/10/29 07:16:43;;;;;;;1.33;0.75;;;13.60;99.90;;;;;;5042785;28;20029;-44
2023/10/29 07:19:10;;;;;;;6.05;1.08;;;13.70;99.90;;;;;;5043363;28;20029;-44
2023/10/29 07:21:35;;;;;;;1.90;0.70;;;13.70;99.90;;;;;;5042269;28;20108;-44
2023/10/29 07:24:04;;;;;;;2.65;0.80;;;13.80;99.90;;;;;;5041957;28;20039;-44
2023/10/29 07:26:29;;;;;;;2.28;0.63;;;13.80;99.90;;;;;;5042790;28;20567;-45
2023/10/29 07:28:55;;;;;;;3.33;0.70;;;13.90;99.90;;;;;;5042431;28;20021;-45
2023/10/29 07:31:20;;;;;;;2.00;0.80;;;14.00;99.90;;;;;;5042234;28;20032;-46
2023/10/29 07:33:49;;;;;;;4.20;0.98;;;14.00;99.90;;;;;;5043228;28;20102;-44
2023/10/29 07:36:16;;;;;;;4.50;1.02;;;14.10;99.90;;;;;;5041844;28;20037;-45
2023/10/29 07:38:45;;;;;;;4.45;0.80;;;14.10;99.90;;;;;;5041842;28;20041;-45
2023/10/29 07:41:11;;;;;;;2.97;1.10;;;14.10;99.90;;;;;;5042095;28;20025;-45
2023/10/29 07:43:36;;;;;;;5.13;0.80;;;14.10;99.90;;;;;;5042377;28;20036;-45
2023/10/29 07:46:05;;;;;;;2.63;0.90;;;14.00;99.90;;;;;;5041676;28;20041;-44
2023/10/29 07:48:33;;;;;;;3.40;0.98;;;14.00;99.90;;;;;;5042040;28;20028;-44
2023/10/29 07:50:59;;;;;;;4.65;1.40;;;14.00;99.90;;;;;;5043259;28;20162;-44
2023/10/29 07:53:26;;;;;;;5.03;1.70;;;14.00;99.90;;;;;;5041923;28;20029;-45
2023/10/29 07:55:52;;;;;;;4.93;1.20;;;14.00;99.90;;;;;;5043321;28;20033;-44
2023/10/29 07:58:18;;;;;;;4.53;1.05;;;14.00;99.90;;;;;;5041799;28;20711;-44
2023/10/29 08:00:46;;;;;;;3.58;0.95;;;14.00;99.90;;;;;;5041899;28;20086;-44
2023/10/29 08:03:12;;;;;;;3.22;1.20;;;14.00;99.90;;;;;;5042134;28;20032;-49
2023/10/29 08:05:37;;;;;;;4.22;1.20;;;14.10;99.90;;;;;;5042655;28;20032;-44
2023/10/29 08:08:05;;;;;;;5.45;1.30;;;14.10;99.90;;;;;;5041836;28;20028;-45
2023/10/29 08:10:31;;;;;;;3.08;1.02;;;14.10;99.90;;;;;;5043025;28;20104;-45
2023/10/29 08:12:56;;;;;;;4.40;1.00;;;14.10;99.90;;;;;;5041362;28;20633;-45
2023/10/29 08:15:22;;;;;;;5.15;1.30;;;14.10;99.90;;;;;;5041991;28;20092;-46
2023/10/29 08:17:47;;;;;;;2.55;0.75;;;14.20;99.90;;;;;;5041798;28;20438;-45
2023/10/29 08:20:13;;;;;;;6.60;1.10;;;14.20;99.90;;;;;;5040734;28;20115;-44
2023/10/29 08:22:39;;;;;;;6.38;1.33;;;14.20;99.90;;;;;;5042071;28;20021;-43
2023/10/29 08:25:05;;;;;;;3.42;1.40;;;14.20;99.90;;;;;;5041865;28;20048;-44
2023/10/29 08:27:30;;;;;;;5.38;1.23;;;14.30;99.90;;;;;;5040780;28;20022;-45
2023/10/29 08:30:01;;;;;;;5.00;0.90;;;14.30;99.90;;;;;;5041539;28;20025;-45
2023/10/29 08:32:27;;;;;;;4.25;1.30;;;14.30;99.90;;;;;;5041736;28;20025;-45
2023/10/29 08:34:53;;;;;;;2.30;1.25;;;14.40;99.90;;;;;;5040377;28;20060;-45
2023/10/29 08:37:20;;;;;;;3.38;1.20;;;14.50;99.90;;;;;;5041549;28;20048;-45
2023/10/29 08:39:46;;;;;;;4.07;1.15;;;14.60;99.90;;;;;;5041096;28;20029;-45
2023/10/29 08:42:12;;;;;;;6.35;2.53;;;14.70;99.90;;;;;;5040005;28;20087;-45
2023/10/29 08:44:40;;;;;;;3.70;1.27;;;14.70;99.90;;;;;;5041821;28;20033;-45
2023/10/29 08:47:09;;;;;;;4.97;1.25;;;14.80;99.90;;;;;;5041496;28;20025;-46
2023/10/29 08:49:34;;;;;;;4.43;1.20;;;14.90;99.90;;;;;;5040507;28;20112;-45
2023/10/29 08:52:00;;;;;;;4.53;1.30;;;15.00;99.90;;;;;;5040928;28;20120;-46
2023/10/29 08:54:26;;;;;;;2.95;1.20;;;15.00;99.90;;;;;;5041093;28;20064;-44
2023/10/29 08:56:51;;;;;;;3.53;0.95;;;15.00;99.90;;;;;;5040444;28;20828;-47
2023/10/29 08:59:17;;;;;;;6.18;1.65;;;15.00;99.90;;;;;;5040705;28;20712;-44
2023/10/29 09:01:43;;;;;;;3.08;1.10;;;15.10;99.90;;;;;;5041866;28;20081;-46
2023/10/29 09:04:10;;;;;;;3.40;1.00;;;15.10;99.90;;;;;;5040024;28;20701;-44
2023/10/29 09:06:37;;;;;;;3.83;1.00;;;15.20;99.90;;;;;;5041073;28;20037;-46
2023/10/29 09:09:04;;;;;;;5.45;1.90;;;15.10;99.90;;;;;;5040699;28;20029;-45
2023/10/29 09:11:30;;;;;;;3.28;1.33;;;15.10;99.90;;;;;;5040397;28;20028;-45
2023/10/29 09:13:55;;;;;;;4.13;0.93;;;15.10;99.90;;;;;;5041078;28;20071;-46
2023/10/29 09:16:21;;;;;;;4.70;1.20;;;15.10;99.90;;;;;;5039412;28;20025;-45
2023/10/29 09:18:46;;;;;;;4.53;1.20;;;15.20;99.90;;;;;;5041140;28;20058;-45
2023/10/29 09:21:12;;;;;;;3.25;1.08;;;15.20;99.90;;;;;;5039937;28;20033;-45
2023/10/29 09:23:37;;;;;;;4.78;1.25;;;15.30;99.90;;;;;;5040997;28;20040;-45
2023/10/29 09:26:03;;;;;;;4.28;1.23;;;15.20;99.90;;;;;;5040703;28;20068;-46
2023/10/29 09:28:29;;;;;;;6.97;1.42;;;15.20;99.90;;;;;;5040883;28;20040;-45
2023/10/29 09:30:54;;;;;;;7.20;1.40;;;15.20;99.90;;;;;;5039949;28;20029;-46
2023/10/29 09:33:20;;;;;;;6.40;1.33;;;15.20;99.90;;;;;;5040038;28;20043;-45
2023/10/29 09:35:45;;;;;;;4.57;1.30;;;15.10;99.90;;;;;;5040268;28;20677;-45
2023/10/29 09:38:11;;;;;;;6.05;1.30;;;15.10;99.90;;;;;;5039470;28;20071;-45
2023/10/29 09:40:37;;;;;;;4.22;1.30;;;15.20;99.90;;;;;;5040506;28;20118;-45
2023/10/29 09:43:05;;;;;;;4.60;1.58;;;15.20;99.90;;;;;;5041463;28;20116;-46
2023/10/29 09:45:32;;;;;;;3.00;1.02;;;15.30;99.90;;;;;;5040511;28;20204;-45
2023/10/29 09:47:59;;;;;;;4.93;1.13;;;15.40;99.90;;;;;;5040204;28;20570;-48
2023/10/29 09:50:27;;;;;;;7.25;1.20;;;15.50;99.90;;;;;;5040269;28;20072;-45
2023/10/29 09:52:57;;;;;;;4.80;1.10;;;15.50;99.90;;;;;;5042558;28;20017;-46
2023/10/29 09:55:23;;;;;;;3.95;1.08;;;15.60;99.90;;;;;;5045039;28;20059;-44
2023/10/29 09:57:49;;;;;;;4.57;1.20;;;15.70;99.90;;;;;;5044502;28;20681;-45
2023/10/29 10:00:16;;;;;;;4.10;0.98;;;15.60;99.90;;;;;;5043680;28;20033;-45
2023/10/29 10:02:53;;;;;;;4.55;1.00;;;15.60;99.90;;;;;;5044376;28;20597;-45
2023/10/29 10:05:23;;;;;;;3.65;1.30;;;15.50;99.90;;;;;;5044352;28;20120;-46
2023/10/29 10:07:51;;;;;;;3.17;1.17;;;15.60;99.90;;;;;;5044968;28;20025;-45
2023/10/29 10:10:19;;;;;;;3.08;0.93;;;15.60;99.90;;;;;;5043859;28;20036;-45
2023/10/29 10:12:49;;;;;;;4.72;1.33;;;15.70;99.90;;;;;;5043416;28;20028;-46
2023/10/29 10:15:19;;;;;;;3.42;0.90;;;15.80;99.90;;;;;;5043797;28;20029;-45
2023/10/29 10:17:57;;;;;;;3.28;1.10;;;15.90;99.90;;;;;;5043561;28;20025;-45
2023/10/29 10:20:26;;;;;;;3.38;0.80;;;15.90;99.90;;;;;;5043498;28;20033;-45
2023/10/29 10:23:09;;;;;;;2.97;1.08;;;15.80;99.90;;;;;;5044132;28;20025;-45
2023/10/29 10:25:35;;;;;;;2.80;1.00;;;15.80;99.90;;;;;;5044269;28;20037;-45
2023/10/29 10:28:04;;;;;;;2.45;0.95;;;15.70;99.90;;;;;;5042729;28;20500;-45
2023/10/29 10:30:34;;;;;;;6.18;1.35;;;15.60;99.90;;;;;;5043678;28;20059;-45
2023/10/29 10:33:12;;;;;;;2.60;0.85;;;15.60;99.90;;;;;;5043442;28;20116;-45
2023/10/29 10:35:46;;;;;;;4.57;1.45;;;15.60;99.90;;;;;;5043767;28;20064;-45
2023/10/29 10:38:13;;;;;;;4.15;1.10;;;15.60;99.90;;;;;;5043288;28;20059;-46
2023/10/29 10:40:38;;;;;;;4.93;1.48;;;15.60;99.90;;;;;;5043380;28;20029;-46
2023/10/29 10:43:06;;;;;;;3.63;1.30;;;15.60;99.90;;;;;;5044411;28;20024;-46
2023/10/29 10:45:33;;;;;;;3.30;1.02;;;15.60;99.90;;;;;;5043651;28;20060;-46
2023/10/29 10:48:01;;;;;;;4.10;1.15;;;15.60;99.90;;;;;;5042790;28;20112;-44
2023/10/29 10:50:28;;;;;;;3.72;0.98;;;15.60;99.90;;;;;;5044598;28;20029;-44
2023/10/29 10:52:57;;;;;;;4.78;1.33;;;15.60;99.90;;;;;;5044282;28;20384;-45
2023/10/29 10:55:24;;;;;;;4.28;1.00;;;15.60;99.90;;;;;;5043046;28;20879;-43
2023/10/29 10:57:51;;;;;;;3.40;1.08;;;15.60;99.90;;;;;;5043924;28;20021;-44
2023/10/29 11:00:18;;;;;;;5.03;1.58;;;15.60;99.90;;;;;;5043539;28;20388;-44
2023/10/29 11:02:45;;;;;;;4.95;1.45;;;15.60;99.90;;;;;;5043790;28;20028;-45
2023/10/29 11:05:12;;;;;;;4.65;1.38;;;15.60;99.90;;;;;;5042482;28;20053;-46
2023/10/29 11:07:40;;;;;;;3.75;1.20;;;15.60;99.90;;;;;;5043791;28;20025;-45
2023/10/29 11:10:10;;;;;;;3.80;1.20;;;15.60;99.90;;;;;;5043000;28;20029;-45
2023/10/29 11:12:36;;;;;;;4.25;1.42;;;15.70;99.90;;;;;;5043504;28;20598;-45
2023/10/29 11:15:23;;;;;;;3.28;1.10;;;15.60;99.90;;;;;;5042845;28;20582;-45
2023/10/29 11:18:03;;;;;;;2.33;1.10;;;15.60;99.90;;;;;;5042612;28;20020;-44
2023/10/29 11:20:45;;;;;;;5.75;0.95;;;15.60;99.90;;;;;;5042720;28;20705;-44
2023/10/29 11:23:24;;;;;;;4.25;1.10;;;15.60;99.90;;;;;;5042404;28;20056;-45
2023/10/29 11:26:10;;;;;;;4.78;1.38;;;15.60;99.90;;;;;;5042560;28;20570;-44
2023/10/29 11:28:36;;;;;;;4.40;1.23;;;15.60;99.90;;;;;;5042494;28;20055;-44
2023/10/29 11:31:12;;;;;;;3.03;1.13;;;15.60;99.90;;;;;;5041871;28;20025;-44
2023/10/29 11:33:39;;;;;;;4.05;1.00;;;15.60;99.90;;;;;;5043007;28;20028;-38
2023/10/29 11:36:34;;;;;;;4.28;1.30;;;15.60;99.90;;;;;;5041193;28;20060;-36
2023/10/29 11:39:19;;;;;;;4.75;1.10;;;15.60;99.90;;;;;;5042370;28;20036;-36
2023/10/29 11:41:48;;;;;;;3.17;1.02;;;15.60;99.90;;;;;;5043499;28;20029;-37
2023/10/29 11:44:33;;;;;;;5.30;1.20;;;15.60;99.90;;;;;;5041854;28;20136;-36
2023/10/29 11:46:58;;;;;;;4.85;1.55;;;15.60;99.90;;;;;;5042653;28;20033;-37
2023/10/29 11:49:28;;;;;;;3.63;1.13;;;15.60;99.90;;;;;;5042827;28;20063;-37
2023/10/29 11:52:01;;;;;;;2.53;1.00;;;15.60;99.90;;;;;;5041725;28;20476;-38
2023/10/29 11:54:28;;;;;;;3.92;0.90;;;15.60;99.90;;;;;;5041836;28;20059;-37
2023/10/29 11:56:55;;;;;;;3.35;1.10;;;15.70;99.90;;;;;;5042312;28;20061;-37
2023/10/29 11:59:20;;;;;;;4.57;1.10;;;15.70;99.90;;;;;;5041313;28;20195;-36
2023/10/29 12:01:46;;;;;;;3.80;1.33;;;15.70;99.90;;;;;;5042408;28;20040;-36
2023/10/29 12:04:12;;;;;;;3.78;1.00;;;15.70;99.90;;;;;;5042568;28;20112;-37
2023/10/29 12:06:39;;;;;;;2.92;1.20;;;15.80;99.90;;;;;;5040939;28;20040;-36
2023/10/29 12:09:22;;;;;;;5.80;1.80;;;15.80;99.90;;;;;;5022492;28;20530;-36
2023/10/29 12:11:52;;;;;;;4.10;1.58;;;15.90;99.90;;;;;;5038959;28;20035;-36
2023/10/29 12:14:46;;;;;;;3.95;1.10;;;16.00;99.90;;;;;;5021945;28;20128;-38
2023/10/29 12:17:13;;;;;;;4.07;1.30;;;16.10;99.90;;;;;;5039023;28;20025;-38
2023/10/29 12:19:45;;;;;;;2.97;1.20;;;16.10;99.90;;;;;;5041592;28;20481;-38
2023/10/29 12:22:21;;;;;;;2.47;1.10;;;16.20;99.90;;;;;;5041992;28;20028;-37
2023/10/29 12:24:50;;;;;;;4.40;1.20;;;16.30;99.90;;;;;;5042142;28;20401;-37
2023/10/29 12:27:16;;;;;;;2.38;0.90;;;16.30;99.90;;;;;;5040309;28;20060;-37
2023/10/29 12:29:42;;;;;;;3.78;1.25;;;16.30;99.90;;;;;;5041806;28;20486;-37
2023/10/29 12:32:18;;;;;;;2.30;0.80;;;16.30;99.90;;;;;;5041055;28;20033;-37
2023/10/29 12:34:50;;;;;;;5.13;1.50;;;16.30;99.90;;;;;;5041058;28;20649;-36
2023/10/29 12:37:28;;;;;;;6.57;1.25;;;16.30;99.90;;;;;;5041214;28;20124;-38
2023/10/29 12:39:56;;;;;;;3.78;1.30;;;16.30;99.90;;;;;;5041899;28;20108;-37
2023/10/29 12:42:24;;;;;;;3.63;0.98;;;16.30;99.90;;;;;;5041105;28;20025;-37
2023/10/29 12:44:56;;;;;;;3.83;1.10;;;16.40;99.90;;;;;;5042434;28;20098;-38
2023/10/29 12:47:23;;;;;;;3.22;1.17;;;16.30;99.90;;;;;;5040912;28;20790;-37